sensor_id;sensor_type;location;lat;lon;timestamp;temperature;humidity
53520;DHT22;39397;53.204;5.778;2024-03-08T00:00:16;2.40;99.90
53520;DHT22;39397;53.204;5.778;2024-03-08T00:02:44;2.20;99.90
53520;DHT22;39397;53.204;5.778;2024-03-08T00:05:10;2.20;99.90
53520;DHT22;39397;53.204;5.778;2024-03-08T00:07:37;0.60;99.90
53520;DHT22;39397;53.204;5.778;2024-03-08T00:10:10;2.50;99.90
53520;DHT22;39397;53.204;5.778;2024-03-08T00:12:43;2.30;99.90
53520;DHT22;39397;53.204;5.778;2024-03-08T00:15:16;2.30;99.90
53520;DHT22;39397;53.204;5.778;2024-03-08T00:17:43;2.20;99.90
53520;DHT22;39397;53.204;5.778;2024-03-08T00:20:09;2.20;99.90
53520;DHT22;39397;53.204;5.778;2024-03-08T00:22:36;2.20;99.90
53520;DHT22;39397;53.204;5.778;2024-03-08T00:25:02;2.10;99.90
53520;DHT22;39397;53.204;5.778;2024-03-08T00:27:28;2.30;99.90
53520;DHT22;39397;53.204;5.778;2024-03-08T00:29:57;2.30;99.90
53520;DHT22;39397;53.204;5.778;2024-03-08T00:32:22;2.20;99.90
53520;DHT22;39397;53.204;5.778;2024-03-08T00:34:51;2.20;99.90
53520;DHT22;39397;53.204;5.778;2024-03-08T00:37:23;2.00;99.90
53520;DHT22;39397;53.204;5.778;2024-03-08T00:39:50;2.00;99.90
53520;DHT22;39397;53.204;5.778;2024-03-08T00:42:17;2.00;99.90
53520;DHT22;39397;53.204;5.778;2024-03-08T00:44:43;2.10;99.90
53520;DHT22;39397;53.204;5.778;2024-03-08T00:47:09;2.10;99.90
53520;DHT22;39397;53.204;5.778;2024-03-08T00:49:35;2.00;99.90
53520;DHT22;39397;53.204;5.778;2024-03-08T00:52:04;2.10;99.90
53520;DHT22;39397;53.204;5.778;2024-03-08T00:54:32;2.00;99.90
53520;DHT22;39397;53.204;5.778;2024-03-08T00:56:57;2.10;99.90
53520;DHT22;39397;53.204;5.778;2024-03-08T00:59:23;2.30;99.90
53520;DHT22;39397;53.204;5.778;2024-03-08T01:01:49;2.00;99.90
53520;DHT22;39397;53.204;5.778;2024-03-08T01:04:15;3.00;99.90
53520;DHT22;39397;53.204;5.778;2024-03-08T01:06:40;2.10;99.90
53520;DHT22;39397;53.204;5.778;2024-03-08T01:09:08;2.00;99.90
53520;DHT22;39397;53.204;5.778;2024-03-08T01:11:34;2.10;99.90
53520;DHT22;39397;53.204;5.778;2024-03-08T01:14:00;2.50;99.90
53520;DHT22;39397;53.204;5.778;2024-03-08T01:16:26;2.80;99.90
53520;DHT22;39397;53.204;5.778;2024-03-08T01:18:52;2.10;99.90
53520;DHT22;39397;53.204;5.778;2024-03-08T01:21:18;1.90;99.90
53520;DHT22;39397;53.204;5.778;2024-03-08T01:23:44;2.00;99.90
53520;DHT22;39397;53.204;5.778;2024-03-08T01:26:09;2.20;99.90
53520;DHT22;39397;53.204;5.778;2024-03-08T01:28:35;2.00;99.90
53520;DHT22;39397;53.204;5.778;2024-03-08T01:31:01;2.00;99.90
53520;DHT22;39397;53.204;5.778;2024-03-08T01:33:29;2.00;99.90
53520;DHT22;39397;53.204;5.778;2024-03-08T01:35:56;2.20;99.90
53520;DHT22;39397;53.204;5.778;2024-03-08T01:38:22;2.00;99.90
53520;DHT22;39397;53.204;5.778;2024-03-08T01:40:49;2.20;99.90
53520;DHT22;39397;53.204;5.778;2024-03-08T01:43:21;2.30;99.90
53520;DHT22;39397;53.204;5.778;2024-03-08T01:45:48;1.90;99.90
53520;DHT22;39397;53.204;5.778;2024-03-08T01:48:15;1.90;99.90
53520;DHT22;39397;53.204;5.778;2024-03-08T01:50:42;2.20;99.90
53520;DHT22;39397;53.204;5.778;2024-03-08T01:53:08;1.80;99.90
53520;DHT22;39397;53.204;5.778;2024-03-08T01:55:36;2.00;99.90
53520;DHT22;39397;53.204;5.778;2024-03-08T01:58:04;2.30;99.90
53520;DHT22;39397;53.204;5.778;2024-03-08T02:00:32;2.00;99.90
53520;DHT22;39397;53.204;5.778;2024-03-08T02:02:58;1.90;99.90
53520;DHT22;39397;53.204;5.778;2024-03-08T02:05:30;2.00;99.90
53520;DHT22;39397;53.204;5.778;2024-03-08T02:07:56;1.90;99.90
53520;DHT22;39397;53.204;5.778;2024-03-08T02:10:22;1.80;99.90
53520;DHT22;39397;53.204;5.778;2024-03-08T02:12:48;1.90;99.90
53520;DHT22;39397;53.204;5.778;2024-03-08T02:15:14;1.90;99.90
53520;DHT22;39397;53.204;5.778;2024-03-08T02:17:40;1.90;99.90
53520;DHT22;39397;53.204;5.778;2024-03-08T02:20:07;1.80;99.90
53520;DHT22;39397;53.204;5.778;2024-03-08T02:22:34;1.80;99.90
53520;DHT22;39397;53.204;5.778;2024-03-08T02:25:02;1.90;99.90
53520;DHT22;39397;53.204;5.778;2024-03-08T02:27:28;1.80;99.90
53520;DHT22;39397;53.204;5.778;2024-03-08T02:29:57;1.90;99.90
53520;DHT22;39397;53.204;5.778;2024-03-08T02:32:23;1.70;99.90
53520;DHT22;39397;53.204;5.778;2024-03-08T02:34:56;2.00;99.90
53520;DHT22;39397;53.204;5.778;2024-03-08T02:37:25;1.80;99.90
53520;DHT22;39397;53.204;5.778;2024-03-08T02:39:51;1.60;99.90
53520;DHT22;39397;53.204;5.778;2024-03-08T02:42:17;1.70;99.90
53520;DHT22;39397;53.204;5.778;2024-03-08T02:44:43;1.60;99.90
53520;DHT22;39397;53.204;5.778;2024-03-08T02:47:12;1.80;99.90
53520;DHT22;39397;53.204;5.778;2024-03-08T02:49:38;1.70;99.90
53520;DHT22;39397;53.204;5.778;2024-03-08T02:52:04;1.70;99.90
53520;DHT22;39397;53.204;5.778;2024-03-08T02:54:30;1.80;99.90
53520;DHT22;39397;53.204;5.778;2024-03-08T02:56:56;1.80;99.90
53520;DHT22;39397;53.204;5.778;2024-03-08T02:59:22;2.00;99.90
53520;DHT22;39397;53.204;5.778;2024-03-08T03:01:49;1.70;99.90
53520;DHT22;39397;53.204;5.778;2024-03-08T03:04:15;1.60;99.90
53520;DHT22;39397;53.204;5.778;2024-03-08T03:06:40;1.60;99.90
53520;DHT22;39397;53.204;5.778;2024-03-08T03:09:06;1.80;99.90
53520;DHT22;39397;53.204;5.778;2024-03-08T03:11:32;2.00;99.90
53520;DHT22;39397;53.204;5.778;2024-03-08T03:13:58;1.80;99.90
53520;DHT22;39397;53.204;5.778;2024-03-08T03:16:24;1.50;99.90
53520;DHT22;39397;53.204;5.778;2024-03-08T03:18:49;1.50;99.90
53520;DHT22;39397;53.204;5.778;2024-03-08T03:21:15;1.50;99.90
53520;DHT22;39397;53.204;5.778;2024-03-08T03:23:42;1.50;99.90
53520;DHT22;39397;53.204;5.778;2024-03-08T03:26:09;1.50;99.90
53520;DHT22;39397;53.204;5.778;2024-03-08T03:28:37;1.50;99.90
53520;DHT22;39397;53.204;5.778;2024-03-08T03:31:08;1.50;99.90
53520;DHT22;39397;53.204;5.778;2024-03-08T03:33:35;1.50;99.90
53520;DHT22;39397;53.204;5.778;2024-03-08T03:36:03;1.50;99.90
53520;DHT22;39397;53.204;5.778;2024-03-08T03:38:30;1.50;99.90
53520;DHT22;39397;53.204;5.778;2024-03-08T03:40:57;1.90;99.90
53520;DHT22;39397;53.204;5.778;2024-03-08T03:43:29;1.30;99.90
53520;DHT22;39397;53.204;5.778;2024-03-08T03:45:55;1.40;99.90
53520;DHT22;39397;53.204;5.778;2024-03-08T03:48:21;1.40;99.90
53520;DHT22;39397;53.204;5.778;2024-03-08T03:50:46;1.40;99.90
53520;DHT22;39397;53.204;5.778;2024-03-08T03:53:12;1.80;99.90
53520;DHT22;39397;53.204;5.778;2024-03-08T03:55:38;1.40;99.90
53520;DHT22;39397;53.204;5.778;2024-03-08T03:58:04;1.20;99.90
53520;DHT22;39397;53.204;5.778;2024-03-08T04:00:30;-0.40;99.90
53520;DHT22;39397;53.204;5.778;2024-03-08T04:02:56;2.10;99.90
53520;DHT22;39397;53.204;5.778;2024-03-08T04:05:24;1.30;99.90
53520;DHT22;39397;53.204;5.778;2024-03-08T04:07:50;1.40;99.90
53520;DHT22;39397;53.204;5.778;2024-03-08T04:10:16;1.30;99.90
53520;DHT22;39397;53.204;5.778;2024-03-08T04:12:42;1.20;99.90
53520;DHT22;39397;53.204;5.778;2024-03-08T04:15:08;1.30;99.90
53520;DHT22;39397;53.204;5.778;2024-03-08T04:17:36;1.20;99.90
53520;DHT22;39397;53.204;5.778;2024-03-08T04:20:06;1.70;99.90
53520;DHT22;39397;53.204;5.778;2024-03-08T04:22:38;1.20;99.90
53520;DHT22;39397;53.204;5.778;2024-03-08T04:25:05;1.20;99.90
53520;DHT22;39397;53.204;5.778;2024-03-08T04:27:34;1.20;99.90
53520;DHT22;39397;53.204;5.778;2024-03-08T04:30:00;1.70;99.90
53520;DHT22;39397;53.204;5.778;2024-03-08T04:32:26;1.20;99.90
53520;DHT22;39397;53.204;5.778;2024-03-08T04:34:53;1.10;99.90
53520;DHT22;39397;53.204;5.778;2024-03-08T04:37:19;1.50;99.90
53520;DHT22;39397;53.204;5.778;2024-03-08T04:39:48;1.20;99.90
53520;DHT22;39397;53.204;5.778;2024-03-08T04:42:14;1.20;99.90
53520;DHT22;39397;53.204;5.778;2024-03-08T04:44:40;1.30;99.90
53520;DHT22;39397;53.204;5.778;2024-03-08T04:47:06;2.20;99.90
53520;DHT22;39397;53.204;5.778;2024-03-08T04:49:32;1.10;99.90
53520;DHT22;39397;53.204;5.778;2024-03-08T04:52:01;1.20;99.90
53520;DHT22;39397;53.204;5.778;2024-03-08T04:54:28;1.60;99.90
53520;DHT22;39397;53.204;5.778;2024-03-08T04:56:54;1.20;99.90
53520;DHT22;39397;53.204;5.778;2024-03-08T04:59:20;1.40;99.90
53520;DHT22;39397;53.204;5.778;2024-03-08T05:01:45;1.20;99.90
53520;DHT22;39397;53.204;5.778;2024-03-08T05:04:11;1.20;99.90
53520;DHT22;39397;53.204;5.778;2024-03-08T05:06:37;1.00;99.90
53520;DHT22;39397;53.204;5.778;2024-03-08T05:09:03;1.20;99.90
53520;DHT22;39397;53.204;5.778;2024-03-08T05:11:40;1.10;99.90
53520;DHT22;39397;53.204;5.778;2024-03-08T05:14:06;1.00;99.90
53520;DHT22;39397;53.204;5.778;2024-03-08T05:16:31;1.20;99.90
53520;DHT22;39397;53.204;5.778;2024-03-08T05:18:57;1.30;99.90
53520;DHT22;39397;53.204;5.778;2024-03-08T05:21:23;2.10;99.90
53520;DHT22;39397;53.204;5.778;2024-03-08T05:23:49;0.90;99.90
53520;DHT22;39397;53.204;5.778;2024-03-08T05:26:16;0.90;99.90
53520;DHT22;39397;53.204;5.778;2024-03-08T05:28:42;0.90;99.90
53520;DHT22;39397;53.204;5.778;2024-03-08T05:31:08;1.90;99.90
53520;DHT22;39397;53.204;5.778;2024-03-08T05:33:34;1.40;99.90
53520;DHT22;39397;53.204;5.778;2024-03-08T05:36:00;0.90;99.90
53520;DHT22;39397;53.204;5.778;2024-03-08T05:38:28;1.00;99.90
53520;DHT22;39397;53.204;5.778;2024-03-08T05:40:54;1.10;99.90
53520;DHT22;39397;53.204;5.778;2024-03-08T05:43:20;0.80;99.90
53520;DHT22;39397;53.204;5.778;2024-03-08T05:45:46;0.90;99.90
53520;DHT22;39397;53.204;5.778;2024-03-08T05:48:13;1.10;99.90
53520;DHT22;39397;53.204;5.778;2024-03-08T05:50:39;1.30;99.90
53520;DHT22;39397;53.204;5.778;2024-03-08T05:53:05;1.20;99.90
53520;DHT22;39397;53.204;5.778;2024-03-08T05:55:35;0.90;99.90
53520;DHT22;39397;53.204;5.778;2024-03-08T05:58:01;0.80;99.90
53520;DHT22;39397;53.204;5.778;2024-03-08T06:00:27;0.80;99.90
53520;DHT22;39397;53.204;5.778;2024-03-08T06:02:53;1.80;99.90
53520;DHT22;39397;53.204;5.778;2024-03-08T06:05:18;0.70;99.90
53520;DHT22;39397;53.204;5.778;2024-03-08T06:07:44;0.70;99.90
53520;DHT22;39397;53.204;5.778;2024-03-08T06:10:11;1.60;99.90
53520;DHT22;39397;53.204;5.778;2024-03-08T06:12:40;0.90;99.90
53520;DHT22;39397;53.204;5.778;2024-03-08T06:15:10;1.60;99.90
53520;DHT22;39397;53.204;5.778;2024-03-08T06:17:40;0.90;99.90
53520;DHT22;39397;53.204;5.778;2024-03-08T06:20:08;1.00;99.90
53520;DHT22;39397;53.204;5.778;2024-03-08T06:22:39;0.70;99.90
53520;DHT22;39397;53.204;5.778;2024-03-08T06:25:16;0.70;99.90
53520;DHT22;39397;53.204;5.778;2024-03-08T06:27:43;0.60;99.90
53520;DHT22;39397;53.204;5.778;2024-03-08T06:30:09;0.90;99.90
53520;DHT22;39397;53.204;5.778;2024-03-08T06:32:38;0.60;99.90
53520;DHT22;39397;53.204;5.778;2024-03-08T06:35:05;0.60;99.90
53520;DHT22;39397;53.204;5.778;2024-03-08T06:37:34;0.60;99.90
53520;DHT22;39397;53.204;5.778;2024-03-08T06:40:00;1.70;99.90
53520;DHT22;39397;53.204;5.778;2024-03-08T06:42:30;0.70;99.90
53520;DHT22;39397;53.204;5.778;2024-03-08T06:45:01;1.30;99.90
53520;DHT22;39397;53.204;5.778;2024-03-08T06:47:31;1.40;99.90
53520;DHT22;39397;53.204;5.778;2024-03-08T06:49:57;1.10;99.90
53520;DHT22;39397;53.204;5.778;2024-03-08T06:52:23;1.70;99.90
53520;DHT22;39397;53.204;5.778;2024-03-08T06:54:49;1.40;99.90
53520;DHT22;39397;53.204;5.778;2024-03-08T06:57:14;1.20;99.90
53520;DHT22;39397;53.204;5.778;2024-03-08T06:59:42;1.20;99.90
53520;DHT22;39397;53.204;5.778;2024-03-08T07:02:08;1.20;99.90
53520;DHT22;39397;53.204;5.778;2024-03-08T07:04:34;1.20;99.90
53520;DHT22;39397;53.204;5.778;2024-03-08T07:07:04;1.50;99.90
53520;DHT22;39397;53.204;5.778;2024-03-08T07:09:30;1.40;99.90
53520;DHT22;39397;53.204;5.778;2024-03-08T07:11:56;1.30;99.90
53520;DHT22;39397;53.204;5.778;2024-03-08T07:14:22;1.90;99.90
53520;DHT22;39397;53.204;5.778;2024-03-08T07:16:48;1.50;99.90
53520;DHT22;39397;53.204;5.778;2024-03-08T07:19:14;1.30;99.90
53520;DHT22;39397;53.204;5.778;2024-03-08T07:21:41;2.00;99.90
53520;DHT22;39397;53.204;5.778;2024-03-08T07:24:07;2.30;99.90
53520;DHT22;39397;53.204;5.778;2024-03-08T07:26:45;1.50;99.90
53520;DHT22;39397;53.204;5.778;2024-03-08T07:29:18;1.70;99.90
53520;DHT22;39397;53.204;5.778;2024-03-08T07:31:44;1.50;99.90
53520;DHT22;39397;53.204;5.778;2024-03-08T07:34:21;1.70;99.90
53520;DHT22;39397;53.204;5.778;2024-03-08T07:36:47;1.70;99.90
53520;DHT22;39397;53.204;5.778;2024-03-08T07:39:15;1.80;99.90
53520;DHT22;39397;53.204;5.778;2024-03-08T07:41:41;1.80;99.90
53520;DHT22;39397;53.204;5.778;2024-03-08T07:44:07;2.60;99.90
53520;DHT22;39397;53.204;5.778;2024-03-08T07:46:33;1.80;99.90
53520;DHT22;39397;53.204;5.778;2024-03-08T07:49:03;1.80;99.90
53520;DHT22;39397;53.204;5.778;2024-03-08T07:51:29;1.90;99.90
53520;DHT22;39397;53.204;5.778;2024-03-08T07:53:54;1.90;99.90
53520;DHT22;39397;53.204;5.778;2024-03-08T07:56:20;2.10;99.90
53520;DHT22;39397;53.204;5.778;2024-03-08T07:58:47;2.00;99.90
53520;DHT22;39397;53.204;5.778;2024-03-08T08:01:20;2.00;99.90
53520;DHT22;39397;53.204;5.778;2024-03-08T08:03:46;2.10;99.90
53520;DHT22;39397;53.204;5.778;2024-03-08T08:06:15;2.10;99.90
53520;DHT22;39397;53.204;5.778;2024-03-08T08:08:42;2.20;99.90
53520;DHT22;39397;53.204;5.778;2024-03-08T08:11:08;0.90;99.90
53520;DHT22;39397;53.204;5.778;2024-03-08T08:13:34;2.30;99.90
53520;DHT22;39397;53.204;5.778;2024-03-08T08:16:02;2.40;99.90
53520;DHT22;39397;53.204;5.778;2024-03-08T08:18:28;2.50;99.90
53520;DHT22;39397;53.204;5.778;2024-03-08T08:20:55;2.50;99.90
53520;DHT22;39397;53.204;5.778;2024-03-08T08:23:21;2.60;99.90
53520;DHT22;39397;53.204;5.778;2024-03-08T08:25:47;2.60;99.90
53520;DHT22;39397;53.204;5.778;2024-03-08T08:28:16;2.90;99.90
53520;DHT22;39397;53.204;5.778;2024-03-08T08:30:46;3.00;99.90
53520;DHT22;39397;53.204;5.778;2024-03-08T08:33:12;3.00;99.90
53520;DHT22;39397;53.204;5.778;2024-03-08T08:35:38;2.90;99.90
53520;DHT22;39397;53.204;5.778;2024-03-08T08:38:04;3.00;99.90
53520;DHT22;39397;53.204;5.778;2024-03-08T08:40:30;3.10;99.90
53520;DHT22;39397;53.204;5.778;2024-03-08T08:42:58;3.20;99.90
53520;DHT22;39397;53.204;5.778;2024-03-08T08:45:23;3.20;99.90
53520;DHT22;39397;53.204;5.778;2024-03-08T08:47:49;3.30;99.90
53520;DHT22;39397;53.204;5.778;2024-03-08T08:50:15;3.40;99.90
53520;DHT22;39397;53.204;5.778;2024-03-08T08:52:42;3.50;99.90
53520;DHT22;39397;53.204;5.778;2024-03-08T08:55:10;3.50;99.90
53520;DHT22;39397;53.204;5.778;2024-03-08T08:57:43;3.60;99.90
53520;DHT22;39397;53.204;5.778;2024-03-08T09:00:10;3.70;99.90
53520;DHT22;39397;53.204;5.778;2024-03-08T09:02:41;3.80;99.90
53520;DHT22;39397;53.204;5.778;2024-03-08T09:05:07;3.80;99.90
53520;DHT22;39397;53.204;5.778;2024-03-08T09:07:34;3.80;99.90
53520;DHT22;39397;53.204;5.778;2024-03-08T09:10:00;3.90;99.90
53520;DHT22;39397;53.204;5.778;2024-03-08T09:12:26;4.00;99.90
53520;DHT22;39397;53.204;5.778;2024-03-08T09:14:52;4.10;99.90
53520;DHT22;39397;53.204;5.778;2024-03-08T09:17:18;4.00;99.90
53520;DHT22;39397;53.204;5.778;2024-03-08T09:19:49;4.10;99.90
53520;DHT22;39397;53.204;5.778;2024-03-08T09:22:14;4.30;99.90
53520;DHT22;39397;53.204;5.778;2024-03-08T09:24:40;4.30;99.90
53520;DHT22;39397;53.204;5.778;2024-03-08T09:27:07;4.40;99.90
53520;DHT22;39397;53.204;5.778;2024-03-08T09:29:35;4.40;99.90
53520;DHT22;39397;53.204;5.778;2024-03-08T09:32:01;4.50;99.90
53520;DHT22;39397;53.204;5.778;2024-03-08T09:34:27;4.70;99.90
53520;DHT22;39397;53.204;5.778;2024-03-08T09:36:52;4.70;99.90
53520;DHT22;39397;53.204;5.778;2024-03-08T09:39:19;4.80;99.90
53520;DHT22;39397;53.204;5.778;2024-03-08T09:41:46;4.80;99.90
53520;DHT22;39397;53.204;5.778;2024-03-08T09:44:15;4.80;99.90
53520;DHT22;39397;53.204;5.778;2024-03-08T09:46:42;5.00;99.90
53520;DHT22;39397;53.204;5.778;2024-03-08T09:49:08;5.00;99.90
53520;DHT22;39397;53.204;5.778;2024-03-08T09:51:34;5.10;99.90
53520;DHT22;39397;53.204;5.778;2024-03-08T09:54:05;5.10;99.90
53520;DHT22;39397;53.204;5.778;2024-03-08T09:56:35;5.20;99.90
53520;DHT22;39397;53.204;5.778;2024-03-08T09:59:02;5.30;99.90
53520;DHT22;39397;53.204;5.778;2024-03-08T10:01:46;5.30;99.90
53520;DHT22;39397;53.204;5.778;2024-03-08T10:04:11;5.30;99.90
53520;DHT22;39397;53.204;5.778;2024-03-08T10:06:40;5.40;99.90
53520;DHT22;39397;53.204;5.778;2024-03-08T10:09:06;5.60;99.90
53520;DHT22;39397;53.204;5.778;2024-03-08T10:11:33;5.50;99.90
53520;DHT22;39397;53.204;5.778;2024-03-08T10:14:00;5.60;99.90
53520;DHT22;39397;53.204;5.778;2024-03-08T10:16:30;5.70;99.90
53520;DHT22;39397;53.204;5.778;2024-03-08T10:18:59;5.60;99.90
53520;DHT22;39397;53.204;5.778;2024-03-08T10:21:26;5.60;99.90
53520;DHT22;39397;53.204;5.778;2024-03-08T10:23:52;5.80;99.90
53520;DHT22;39397;53.204;5.778;2024-03-08T10:26:19;5.90;99.90
53520;DHT22;39397;53.204;5.778;2024-03-08T10:28:48;5.90;99.90
53520;DHT22;39397;53.204;5.778;2024-03-08T10:31:15;6.10;99.90
53520;DHT22;39397;53.204;5.778;2024-03-08T10:33:41;6.00;99.90
53520;DHT22;39397;53.204;5.778;2024-03-08T10:36:08;6.00;99.90
53520;DHT22;39397;53.204;5.778;2024-03-08T10:38:39;6.00;99.90
53520;DHT22;39397;53.204;5.778;2024-03-08T10:41:09;6.10;99.90
53520;DHT22;39397;53.204;5.778;2024-03-08T10:46:35;6.10;99.90
53520;DHT22;39397;53.204;5.778;2024-03-08T10:49:10;6.30;99.90
53520;DHT22;39397;53.204;5.778;2024-03-08T10:51:38;6.30;99.90
53520;DHT22;39397;53.204;5.778;2024-03-08T10:54:08;6.40;99.90
53520;DHT22;39397;53.204;5.778;2024-03-08T10:56:35;7.30;99.90
53520;DHT22;39397;53.204;5.778;2024-03-08T10:59:01;6.50;99.90
53520;DHT22;39397;53.204;5.778;2024-03-08T11:01:29;6.50;99.90
53520;DHT22;39397;53.204;5.778;2024-03-08T11:03:55;6.70;99.90
53520;DHT22;39397;53.204;5.778;2024-03-08T11:09:11;6.70;99.90
53520;DHT22;39397;53.204;5.778;2024-03-08T11:11:53;6.70;99.90
53520;DHT22;39397;53.204;5.778;2024-03-08T11:14:46;6.90;99.90
53520;DHT22;39397;53.204;5.778;2024-03-08T11:19:55;7.00;99.90
53520;DHT22;39397;53.204;5.778;2024-03-08T11:22:33;6.90;99.90
53520;DHT22;39397;53.204;5.778;2024-03-08T11:25:02;6.90;99.90
53520;DHT22;39397;53.204;5.778;2024-03-08T11:27:31;7.10;99.90
53520;DHT22;39397;53.204;5.778;2024-03-08T11:30:03;7.10;99.90
53520;DHT22;39397;53.204;5.778;2024-03-08T11:32:48;9.20;99.90
53520;DHT22;39397;53.204;5.778;2024-03-08T11:35:21;7.30;99.90
53520;DHT22;39397;53.204;5.778;2024-03-08T11:37:48;7.40;99.90
53520;DHT22;39397;53.204;5.778;2024-03-08T11:40:15;7.30;99.90
53520;DHT22;39397;53.204;5.778;2024-03-08T11:42:45;7.40;99.90
53520;DHT22;39397;53.204;5.778;2024-03-08T11:45:17;7.40;99.90
53520;DHT22;39397;53.204;5.778;2024-03-08T11:47:44;7.50;99.90
53520;DHT22;39397;53.204;5.778;2024-03-08T11:50:13;7.50;99.90
53520;DHT22;39397;53.204;5.778;2024-03-08T11:52:39;7.30;99.90
53520;DHT22;39397;53.204;5.778;2024-03-08T11:55:06;7.50;99.90
53520;DHT22;39397;53.204;5.778;2024-03-08T11:57:32;7.70;99.90
53520;DHT22;39397;53.204;5.778;2024-03-08T11:59:58;7.80;99.90
53520;DHT22;39397;53.204;5.778;2024-03-08T12:02:33;7.70;99.90
53520;DHT22;39397;53.204;5.778;2024-03-08T12:05:01;7.80;99.90
53520;DHT22;39397;53.204;5.778;2024-03-08T12:07:31;7.80;99.90
53520;DHT22;39397;53.204;5.778;2024-03-08T12:10:16;7.80;99.90
53520;DHT22;39397;53.204;5.778;2024-03-08T12:12:51;7.90;99.90
53520;DHT22;39397;53.204;5.778;2024-03-08T12:15:21;7.50;99.90
53520;DHT22;39397;53.204;5.778;2024-03-08T12:17:52;7.90;99.90
53520;DHT22;39397;53.204;5.778;2024-03-08T12:22:51;7.80;99.90
53520;DHT22;39397;53.204;5.778;2024-03-08T12:25:19;7.80;99.90
53520;DHT22;39397;53.204;5.778;2024-03-08T12:27:46;7.90;99.90
53520;DHT22;39397;53.204;5.778;2024-03-08T12:30:32;8.00;99.90
53520;DHT22;39397;53.204;5.778;2024-03-08T12:33:00;8.00;99.90
53520;DHT22;39397;53.204;5.778;2024-03-08T12:35:27;8.00;99.90
53520;DHT22;39397;53.204;5.778;2024-03-08T12:37:58;8.00;99.90
53520;DHT22;39397;53.204;5.778;2024-03-08T12:40:28;8.10;99.90
53520;DHT22;39397;53.204;5.778;2024-03-08T12:42:58;8.10;99.90
53520;DHT22;39397;53.204;5.778;2024-03-08T12:45:24;8.40;99.90
53520;DHT22;39397;53.204;5.778;2024-03-08T12:47:51;8.20;99.90
53520;DHT22;39397;53.204;5.778;2024-03-08T12:50:19;8.50;99.90
53520;DHT22;39397;53.204;5.778;2024-03-08T12:52:45;8.40;99.90
53520;DHT22;39397;53.204;5.778;2024-03-08T12:55:12;8.20;99.90
53520;DHT22;39397;53.204;5.778;2024-03-08T12:57:38;8.40;99.90
53520;DHT22;39397;53.204;5.778;2024-03-08T13:00:05;8.40;99.90
53520;DHT22;39397;53.204;5.778;2024-03-08T13:02:31;8.50;99.90
53520;DHT22;39397;53.204;5.778;2024-03-08T13:04:58;8.50;99.90
53520;DHT22;39397;53.204;5.778;2024-03-08T13:07:25;8.60;99.90
53520;DHT22;39397;53.204;5.778;2024-03-08T13:09:52;8.60;99.90
53520;DHT22;39397;53.204;5.778;2024-03-08T13:12:19;8.60;99.90
53520;DHT22;39397;53.204;5.778;2024-03-08T13:14:46;8.80;99.90
53520;DHT22;39397;53.204;5.778;2024-03-08T13:17:13;8.90;99.90
53520;DHT22;39397;53.204;5.778;2024-03-08T13:19:39;8.90;99.90
53520;DHT22;39397;53.204;5.778;2024-03-08T13:22:05;8.70;99.90
53520;DHT22;39397;53.204;5.778;2024-03-08T13:24:31;9.20;99.90
53520;DHT22;39397;53.204;5.778;2024-03-08T13:26:57;7.10;99.90
53520;DHT22;39397;53.204;5.778;2024-03-08T13:29:24;9.10;99.90
53520;DHT22;39397;53.204;5.778;2024-03-08T13:31:49;8.90;99.90
53520;DHT22;39397;53.204;5.778;2024-03-08T13:34:20;8.90;99.90
53520;DHT22;39397;53.204;5.778;2024-03-08T13:36:55;8.90;99.90
53520;DHT22;39397;53.204;5.778;2024-03-08T13:39:25;8.80;99.90
53520;DHT22;39397;53.204;5.778;2024-03-08T13:41:51;8.80;99.90
53520;DHT22;39397;53.204;5.778;2024-03-08T13:44:17;8.80;99.90
53520;DHT22;39397;53.204;5.778;2024-03-08T13:46:43;8.90;99.90
53520;DHT22;39397;53.204;5.778;2024-03-08T13:49:08;8.70;99.90
53520;DHT22;39397;53.204;5.778;2024-03-08T13:51:36;8.80;99.90
53520;DHT22;39397;53.204;5.778;2024-03-08T13:54:02;8.80;99.90
53520;DHT22;39397;53.204;5.778;2024-03-08T13:56:28;9.00;99.90
53520;DHT22;39397;53.204;5.778;2024-03-08T13:58:56;9.70;99.90
53520;DHT22;39397;53.204;5.778;2024-03-08T14:01:23;8.90;99.90
53520;DHT22;39397;53.204;5.778;2024-03-08T14:03:49;9.00;99.90
53520;DHT22;39397;53.204;5.778;2024-03-08T14:06:15;9.10;99.90
53520;DHT22;39397;53.204;5.778;2024-03-08T14:08:40;8.10;99.90
53520;DHT22;39397;53.204;5.778;2024-03-08T14:11:06;9.20;99.90
53520;DHT22;39397;53.204;5.778;2024-03-08T14:13:42;9.10;99.90
53520;DHT22;39397;53.204;5.778;2024-03-08T14:16:10;9.10;99.90
53520;DHT22;39397;53.204;5.778;2024-03-08T14:18:36;9.10;99.90
53520;DHT22;39397;53.204;5.778;2024-03-08T14:21:03;9.20;99.90
53520;DHT22;39397;53.204;5.778;2024-03-08T14:23:30;9.30;99.90
53520;DHT22;39397;53.204;5.778;2024-03-08T14:25:55;9.20;99.90
53520;DHT22;39397;53.204;5.778;2024-03-08T14:28:21;9.30;99.90
53520;DHT22;39397;53.204;5.778;2024-03-08T14:30:48;9.20;99.90
53520;DHT22;39397;53.204;5.778;2024-03-08T14:33:14;9.20;99.90
53520;DHT22;39397;53.204;5.778;2024-03-08T14:35:41;9.20;99.90
53520;DHT22;39397;53.204;5.778;2024-03-08T14:38:08;9.40;99.90
53520;DHT22;39397;53.204;5.778;2024-03-08T14:40:34;9.40;99.90
53520;DHT22;39397;53.204;5.778;2024-03-08T14:43:02;9.50;99.90
53520;DHT22;39397;53.204;5.778;2024-03-08T14:45:27;9.50;99.90
53520;DHT22;39397;53.204;5.778;2024-03-08T14:47:53;9.50;99.90
53520;DHT22;39397;53.204;5.778;2024-03-08T14:50:21;9.50;99.90
53520;DHT22;39397;53.204;5.778;2024-03-08T14:52:48;9.50;99.90
53520;DHT22;39397;53.204;5.778;2024-03-08T14:55:21;9.50;99.90
53520;DHT22;39397;53.204;5.778;2024-03-08T14:57:51;9.70;99.90
53520;DHT22;39397;53.204;5.778;2024-03-08T15:00:18;9.70;99.90
53520;DHT22;39397;53.204;5.778;2024-03-08T15:02:55;9.70;99.90
53520;DHT22;39397;53.204;5.778;2024-03-08T15:05:22;9.90;99.90
53520;DHT22;39397;53.204;5.778;2024-03-08T15:07:54;9.90;99.90
53520;DHT22;39397;53.204;5.778;2024-03-08T15:10:20;10.00;99.90
53520;DHT22;39397;53.204;5.778;2024-03-08T15:12:50;10.20;99.90
53520;DHT22;39397;53.204;5.778;2024-03-08T15:15:18;10.30;99.90
53520;DHT22;39397;53.204;5.778;2024-03-08T15:17:45;10.30;99.90
53520;DHT22;39397;53.204;5.778;2024-03-08T15:20:15;10.30;99.90
53520;DHT22;39397;53.204;5.778;2024-03-08T15:22:50;10.40;99.90
53520;DHT22;39397;53.204;5.778;2024-03-08T15:25:40;10.50;99.90
53520;DHT22;39397;53.204;5.778;2024-03-08T15:28:33;11.30;99.90
53520;DHT22;39397;53.204;5.778;2024-03-08T15:31:06;10.80;99.90
53520;DHT22;39397;53.204;5.778;2024-03-08T15:33:33;10.90;99.90
53520;DHT22;39397;53.204;5.778;2024-03-08T15:35:59;10.90;99.90
53520;DHT22;39397;53.204;5.778;2024-03-08T15:38:29;10.90;99.90
53520;DHT22;39397;53.204;5.778;2024-03-08T15:40:55;10.50;99.90
53520;DHT22;39397;53.204;5.778;2024-03-08T15:43:21;10.40;99.90
53520;DHT22;39397;53.204;5.778;2024-03-08T15:45:48;10.10;99.90
53520;DHT22;39397;53.204;5.778;2024-03-08T15:48:14;10.00;99.90
53520;DHT22;39397;53.204;5.778;2024-03-08T15:50:39;9.80;99.90
53520;DHT22;39397;53.204;5.778;2024-03-08T15:53:06;9.60;99.90
53520;DHT22;39397;53.204;5.778;2024-03-08T15:55:31;9.50;99.90
53520;DHT22;39397;53.204;5.778;2024-03-08T15:57:59;9.40;99.90